Time;durP1;ratioP1;P1;durP2;ratioP2;P2;SDS_P1;SDS_P2;PMS_P1;PMS_P2;Temp;Humidity;BMP_temperature;BMP_pressure;BME280_temperature;BME280_humidity;BME280_pressure;Samples;Min_cycle;Max_cycle;Signal;HPM_P1;HPM_P2
2022/01/01 00:00:33;;;;;;;;;;;12.70;99.90;;;;;;5075799;28;20365;-77
2022/01/01 00:02:59;;;;;;;;;;;12.70;99.90;;;;;;5075595;28;20269;-77
2022/01/01 00:05:25;;;;;;;;;;;12.70;99.90;;;;;;5074196;28;19957;-76
2022/01/01 00:07:50;;;;;;;;;;;12.70;99.90;;;;;;5075429;28;19978;-76
2022/01/01 00:10:18;;;;;;;;;;;12.60;99.90;;;;;;5075407;28;20042;-78
2022/01/01 00:12:43;;;;;;;;;;;12.60;99.90;;;;;;5075215;28;20409;-76
2022/01/01 00:15:09;;;;;;;;;;;12.60;99.90;;;;;;5075386;28;20003;-76
2022/01/01 00:17:34;;;;;;;;;;;12.50;99.90;;;;;;5075146;28;19912;-77
2022/01/01 00:20:00;;;;;;;;;;;12.50;99.90;;;;;;5075256;28;19909;-77
2022/01/01 00:22:26;;;;;;;;;;;12.50;99.90;;;;;;5073868;28;19931;-76
2022/01/01 00:24:51;;;;;;;;;;;12.40;99.90;;;;;;5075063;28;19915;-76
2022/01/01 00:27:17;;;;;;;;;;;12.40;99.90;;;;;;5073783;28;19919;-76
2022/01/01 00:29:42;;;;;;;;;;;12.30;99.90;;;;;;5073740;28;19947;-77
2022/01/01 00:32:08;;;;;;;;;;;12.30;99.90;;;;;;5074976;28;19955;-77
2022/01/01 00:34:35;;;;;;;;;;;12.20;99.90;;;;;;5075091;28;19916;-76
2022/01/01 00:37:00;;;;;;;;;;;12.10;99.90;;;;;;5073480;28;20297;-75
2022/01/01 00:39:26;;;;;;;;;;;12.10;99.90;;;;;;5074892;28;19908;-78
2022/01/01 00:41:52;;;;;;;;;;;12.00;99.90;;;;;;5074617;28;19916;-77
2022/01/01 00:44:17;;;;;;;;;;;12.00;99.90;;;;;;5073434;28;19915;-76
2022/01/01 00:46:43;;;;;;;;;;;11.90;99.90;;;;;;5074819;28;20390;-76
2022/01/01 00:49:08;;;;;;;;;;;11.90;99.90;;;;;;5073355;28;19912;-77
2022/01/01 00:51:34;;;;;;;;;;;11.90;99.90;;;;;;5073263;28;20418;-77
2022/01/01 00:53:59;;;;;;;;;;;11.90;99.90;;;;;;5074562;28;20387;-77
2022/01/01 00:56:26;;;;;;;;;;;11.80;99.90;;;;;;5073947;28;19912;-77
2022/01/01 00:58:52;;;;;;;;;;;11.80;99.90;;;;;;5074611;28;19908;-76
2022/01/01 01:01:17;;;;;;;;;;;11.70;99.90;;;;;;5074482;28;19915;-76
2022/01/01 01:03:43;;;;;;;;;;;11.70;99.90;;;;;;5074310;28;19991;-75
2022/01/01 01:06:10;;;;;;;;;;;11.70;99.90;;;;;;5074426;28;19955;-76
2022/01/01 01:08:36;;;;;;;;;;;11.70;99.90;;;;;;5072888;28;19908;-77
2022/01/01 01:11:06;;;;;;;;;;;11.70;99.90;;;;;;5074151;28;19954;-77
2022/01/01 01:13:33;;;;;;;;;;;11.70;99.90;;;;;;5072675;28;19920;-76
2022/01/01 01:15:59;;;;;;;;;;;11.60;99.90;;;;;;5072766;28;19969;-78
2022/01/01 01:18:24;;;;;;;;;;;11.60;99.90;;;;;;5072815;28;19908;-76
2022/01/01 01:20:50;;;;;;;;;;;11.60;99.90;;;;;;5074230;28;20019;-76
2022/01/01 01:23:15;;;;;;;;;;;11.60;99.90;;;;;;5074113;28;19909;-77
2022/01/01 01:25:41;;;;;;;;;;;11.60;99.90;;;;;;5074015;28;19995;-76
2022/01/01 01:28:08;;;;;;;;;;;11.60;99.90;;;;;;5074161;28;19909;-77
2022/01/01 01:30:34;;;;;;;;;;;11.60;99.90;;;;;;5072617;28;19908;-75
2022/01/01 01:33:00;;;;;;;;;;;11.60;99.90;;;;;;5074035;28;20424;-77
2022/01/01 01:35:26;;;;;;;;;;;11.50;99.90;;;;;;5073760;28;19944;-76
2022/01/01 01:37:51;;;;;;;;;;;11.50;99.90;;;;;;5074052;28;19931;-76
2022/01/01 01:40:17;;;;;;;;;;;11.50;99.90;;;;;;5073887;28;20376;-76
2022/01/01 01:42:46;;;;;;;;;;;11.50;99.90;;;;;;5073743;28;19958;-76
2022/01/01 01:45:16;;;;;;;;;;;11.50;99.90;;;;;;5073755;28;19912;-77
2022/01/01 01:47:42;;;;;;;;;;;11.50;99.90;;;;;;5073669;28;19909;-77
2022/01/01 01:50:09;;;;;;;;;;;11.40;99.90;;;;;;5072453;28;19908;-76
2022/01/01 01:52:36;;;;;;;;;;;11.40;99.90;;;;;;5073863;28;19908;-75
2022/01/01 01:55:04;;;;;;;;;;;11.40;99.90;;;;;;5072358;28;19974;-75
2022/01/01 01:57:29;;;;;;;;;;;11.30;99.90;;;;;;5073518;28;19924;-76
2022/01/01 01:59:55;;;;;;;;;;;11.40;99.90;;;;;;5073687;28;19909;-77
2022/01/01 02:02:21;;;;;;;;;;;11.30;99.90;;;;;;5073497;28;19909;-76
2022/01/01 02:04:46;;;;;;;;;;;11.30;99.90;;;;;;5073550;28;19916;-77
2022/01/01 02:07:12;;;;;;;;;;;11.30;99.90;;;;;;5074450;28;19908;-77
2022/01/01 02:09:38;;;;;;;;;;;11.30;99.90;;;;;;5077757;28;19912;-75
2022/01/01 02:12:08;;;;;;;;;;;11.20;99.90;;;;;;5077445;28;19920;-75
2022/01/01 02:17:35;;;;;;;;;;;11.20;99.90;;;;;;5068030;28;19919;-77
2022/01/01 02:20:07;;;;;;;;;;;11.10;99.90;;;;;;5077521;28;19908;-77
2022/01/01 02:22:37;;;;;;;;;;;11.10;99.90;;;;;;5076148;28;19916;-75
2022/01/01 02:25:04;;;;;;;;;;;11.10;99.90;;;;;;5077357;28;19909;-77
2022/01/01 02:27:29;;;;;;;;;;;11.10;99.90;;;;;;5077372;28;19912;-76
2022/01/01 02:29:55;;;;;;;;;;;11.00;99.90;;;;;;5077317;28;20315;-75
2022/01/01 02:32:20;;;;;;;;;;;11.00;99.90;;;;;;5077310;28;19909;-77
2022/01/01 02:34:46;;;;;;;;;;;11.00;99.90;;;;;;5077214;28;19908;-76
2022/01/01 02:37:12;;;;;;;;;;;11.00;99.90;;;;;;5077455;28;19912;-76
2022/01/01 02:39:37;;;;;;;;;;;10.90;99.90;;;;;;5077038;28;19983;-78
2022/01/01 02:42:06;;;;;;;;;;;10.90;99.90;;;;;;5075812;28;20003;-76
2022/01/01 02:44:31;;;;;;;;;;;10.80;99.90;;;;;;5077010;28;19918;-77
2022/01/01 02:46:57;;;;;;;;;;;10.70;99.90;;;;;;5077450;28;19931;-77
2022/01/01 02:49:23;;;;;;;;;;;10.70;99.90;;;;;;5075696;28;19916;-75
2022/01/01 02:51:49;;;;;;;;;;;10.60;99.90;;;;;;5077034;28;20281;-75
2022/01/01 02:54:14;;;;;;;;;;;10.60;99.90;;;;;;5076869;28;19916;-76
2022/01/01 02:56:40;;;;;;;;;;;10.50;99.90;;;;;;5075386;28;20003;-76
2022/01/01 02:59:05;;;;;;;;;;;10.50;99.90;;;;;;5076794;28;19908;-78
2022/01/01 03:01:31;;;;;;;;;;;10.50;99.90;;;;;;5075464;28;19909;-76
2022/01/01 03:03:57;;;;;;;;;;;10.40;99.90;;;;;;5075390;28;19916;-76
2022/01/01 03:06:22;;;;;;;;;;;10.40;99.90;;;;;;5076715;28;19909;-77
2022/01/01 03:08:51;;;;;;;;;;;10.40;99.90;;;;;;5075303;28;20009;-77
2022/01/01 03:11:16;;;;;;;;;;;10.30;99.90;;;;;;5076518;28;19913;-75
2022/01/01 03:13:42;;;;;;;;;;;10.30;99.90;;;;;;5076661;28;20415;-76
2022/01/01 03:16:08;;;;;;;;;;;10.30;99.90;;;;;;5076442;28;19912;-76
2022/01/01 03:18:33;;;;;;;;;;;10.30;99.90;;;;;;5075931;28;19999;-78
2022/01/01 03:20:59;;;;;;;;;;;10.30;99.90;;;;;;5076347;28;20369;-77
2022/01/01 03:23:24;;;;;;;;;;;10.30;99.90;;;;;;5075336;28;19998;-77
2022/01/01 03:25:50;;;;;;;;;;;10.30;99.90;;;;;;5076288;28;20331;-75
2022/01/01 03:28:16;;;;;;;;;;;10.30;99.90;;;;;;5076237;28;19909;-77
2022/01/01 03:30:42;;;;;;;;;;;10.30;99.90;;;;;;5076455;28;20347;-76
2022/01/01 03:33:07;;;;;;;;;;;10.30;99.90;;;;;;5076520;28;19947;-77
2022/01/01 03:35:33;;;;;;;;;;;10.20;99.90;;;;;;5074541;28;19908;-76
2022/01/01 03:37:58;;;;;;;;;;;10.20;99.90;;;;;;5076252;28;19952;-76
2022/01/01 03:40:24;;;;;;;;;;;10.20;99.90;;;;;;5075946;28;19909;-76
2022/01/01 03:42:49;;;;;;;;;;;10.20;99.90;;;;;;5076215;28;20383;-77
2022/01/01 03:45:15;;;;;;;;;;;10.10;99.90;;;;;;5075953;28;19909;-76
2022/01/01 03:47:41;;;;;;;;;;;10.10;99.90;;;;;;5076187;28;19909;-77
2022/01/01 03:50:07;;;;;;;;;;;10.10;99.90;;;;;;5074531;28;19908;-76
2022/01/01 03:52:34;;;;;;;;;;;10.10;99.90;;;;;;5074488;28;19909;-77
2022/01/01 03:55:00;;;;;;;;;;;10.00;99.90;;;;;;5074459;28;19912;-77
2022/01/01 03:57:25;;;;;;;;;;;10.00;99.90;;;;;;5076110;28;19917;-76
2022/01/01 03:59:51;;;;;;;;;;;10.00;99.90;;;;;;5074367;28;19948;-76
2022/01/01 04:02:16;;;;;;;;;;;10.00;99.90;;;;;;5075672;28;19934;-76
2022/01/01 04:04:42;;;;;;;;;;;10.00;99.90;;;;;;5075654;28;19995;-76
2022/01/01 04:07:09;;;;;;;;;;;10.00;99.90;;;;;;5075483;28;20288;-75
2022/01/01 04:09:35;;;;;;;;;;;10.00;99.90;;;;;;5075455;28;19909;-76
2022/01/01 04:12:00;;;;;;;;;;;10.00;99.90;;;;;;5075186;28;19970;-75
2022/01/01 04:14:26;;;;;;;;;;;10.10;99.90;;;;;;5075347;28;19995;-77
2022/01/01 04:16:53;;;;;;;;;;;10.10;99.90;;;;;;5075203;28;20280;-76
2022/01/01 04:19:22;;;;;;;;;;;9.90;99.90;;;;;;5073957;28;19908;-78
2022/01/01 04:21:48;;;;;;;;;;;9.80;99.90;;;;;;5073906;28;19908;-76
2022/01/01 04:24:13;;;;;;;;;;;9.80;99.90;;;;;;5075290;28;20303;-76
2022/01/01 04:26:39;;;;;;;;;;;9.90;99.90;;;;;;5075067;28;19996;-77
2022/01/01 04:29:05;;;;;;;;;;;9.80;99.90;;;;;;5075059;28;19908;-75
2022/01/01 04:31:31;;;;;;;;;;;9.90;99.90;;;;;;5074204;28;20427;-76
2022/01/01 04:33:57;;;;;;;;;;;9.80;99.90;;;;;;5074966;28;20007;-77
2022/01/01 04:36:23;;;;;;;;;;;9.80;99.90;;;;;;5074905;28;19919;-78
2022/01/01 04:38:48;;;;;;;;;;;9.80;99.90;;;;;;5075172;28;20288;-76
2022/01/01 04:41:15;;;;;;;;;;;9.80;99.90;;;;;;5075323;28;19915;-76
2022/01/01 04:43:41;;;;;;;;;;;9.80;99.90;;;;;;5074980;28;19946;-75
2022/01/01 04:46:07;;;;;;;;;;;9.70;99.90;;;;;;5075043;28;19923;-76
2022/01/01 04:48:37;;;;;;;;;;;9.60;99.90;;;;;;5074940;28;20363;-77
2022/01/01 04:51:07;;;;;;;;;;;9.50;99.90;;;;;;5074616;28;19909;-77
2022/01/01 04:53:33;;;;;;;;;;;9.60;99.90;;;;;;5074559;28;19946;-76
2022/01/01 04:56:03;;;;;;;;;;;9.60;99.90;;;;;;5074799;28;19916;-77
2022/01/01 04:58:29;;;;;;;;;;;9.70;99.90;;;;;;5073216;28;19915;-76
2022/01/01 05:00:54;;;;;;;;;;;9.80;99.90;;;;;;5074672;28;19909;-76
2022/01/01 05:03:20;;;;;;;;;;;9.80;99.90;;;;;;5074390;28;19908;-78
2022/01/01 05:05:45;;;;;;;;;;;9.70;99.90;;;;;;5074346;28;20368;-77
2022/01/01 05:08:11;;;;;;;;;;;9.70;99.90;;;;;;5074294;28;19947;-76
2022/01/01 05:10:36;;;;;;;;;;;9.80;99.90;;;;;;5072961;28;19916;-77
2022/01/01 05:13:02;;;;;;;;;;;9.80;99.90;;;;;;5073865;28;19966;-77
2022/01/01 05:15:28;;;;;;;;;;;9.90;99.90;;;;;;5074816;28;19919;-76
2022/01/01 05:17:53;;;;;;;;;;;9.80;99.90;;;;;;5074083;28;20331;-76
2022/01/01 05:20:21;;;;;;;;;;;9.80;99.90;;;;;;5073319;28;20116;-76
2022/01/01 05:22:47;;;;;;;;;;;9.80;99.90;;;;;;5072779;28;19908;-77
2022/01/01 05:25:12;;;;;;;;;;;9.90;99.90;;;;;;5074011;28;19908;-77
2022/01/01 05:27:38;;;;;;;;;;;9.90;99.90;;;;;;5073956;28;20383;-75
2022/01/01 05:30:05;;;;;;;;;;;9.90;99.90;;;;;;5073936;28;19944;-76
2022/01/01 05:32:30;;;;;;;;;;;9.90;99.90;;;;;;5074088;28;19995;-77
2022/01/01 05:34:56;;;;;;;;;;;9.90;99.90;;;;;;5074004;28;19952;-76
2022/01/01 05:37:21;;;;;;;;;;;10.00;99.90;;;;;;5073906;28;19913;-77
2022/01/01 05:39:47;;;;;;;;;;;10.10;99.90;;;;;;5072489;28;19956;-78
2022/01/01 05:42:12;;;;;;;;;;;10.10;99.90;;;;;;5073918;28;20254;-76
2022/01/01 05:44:38;;;;;;;;;;;10.10;99.90;;;;;;5074153;28;19908;-75
2022/01/01 05:47:04;;;;;;;;;;;10.10;99.90;;;;;;5072430;28;19908;-78
2022/01/01 05:49:29;;;;;;;;;;;10.10;99.90;;;;;;5073880;28;19920;-75
2022/01/01 05:51:55;;;;;;;;;;;10.10;99.90;;;;;;5073763;28;20405;-77
2022/01/01 05:54:20;;;;;;;;;;;10.10;99.90;;;;;;5072357;28;19916;-76
2022/01/01 05:56:46;;;;;;;;;;;10.10;99.90;;;;;;5073889;28;20000;-76
2022/01/01 05:59:12;;;;;;;;;;;10.00;99.90;;;;;;5073726;28;20307;-76
2022/01/01 06:01:37;;;;;;;;;;;10.00;99.90;;;;;;5073620;28;20392;-76
2022/01/01 06:04:03;;;;;;;;;;;9.90;99.90;;;;;;5073994;28;19912;-76
2022/01/01 06:06:28;;;;;;;;;;;9.90;99.90;;;;;;5073551;28;20058;-76
2022/01/01 06:08:54;;;;;;;;;;;9.90;99.90;;;;;;5073500;28;19999;-75
2022/01/01 06:11:19;;;;;;;;;;;9.80;99.90;;;;;;5073312;28;19912;-77
2022/01/01 06:13:45;;;;;;;;;;;9.70;99.90;;;;;;5073882;28;19912;-75
2022/01/01 06:16:11;;;;;;;;;;;9.80;99.90;;;;;;5073383;28;20003;-76
2022/01/01 06:18:36;;;;;;;;;;;9.80;99.90;;;;;;5073514;28;19908;-77
2022/01/01 06:21:03;;;;;;;;;;;9.80;99.90;;;;;;5073448;28;19915;-77
2022/01/01 06:23:29;;;;;;;;;;;9.70;99.90;;;;;;5073834;28;20078;-76
2022/01/01 06:25:54;;;;;;;;;;;9.70;99.90;;;;;;5073542;28;20015;-76
2022/01/01 06:28:20;;;;;;;;;;;9.70;99.90;;;;;;5073400;28;19909;-77
2022/01/01 06:30:46;;;;;;;;;;;9.60;99.90;;;;;;5073227;28;20383;-76
2022/01/01 06:33:12;;;;;;;;;;;9.50;99.90;;;;;;5073368;28;19916;-77
2022/01/01 06:35:42;;;;;;;;;;;9.60;99.90;;;;;;5073297;28;19997;-76
2022/01/01 06:38:07;;;;;;;;;;;9.70;99.90;;;;;;5073236;28;19909;-77
2022/01/01 06:40:33;;;;;;;;;;;9.70;99.90;;;;;;5073296;28;19908;-77
2022/01/01 06:42:59;;;;;;;;;;;9.70;99.90;;;;;;5071925;28;19912;-77
2022/01/01 06:45:25;;;;;;;;;;;9.70;99.90;;;;;;5071866;28;20391;-77
2022/01/01 06:47:50;;;;;;;;;;;9.60;99.90;;;;;;5071872;28;20391;-77
2022/01/01 06:50:16;;;;;;;;;;;9.50;99.90;;;;;;5073492;28;19909;-76
2022/01/01 06:52:43;;;;;;;;;;;9.30;99.90;;;;;;5073334;28;19908;-76
2022/01/01 06:55:09;;;;;;;;;;;9.30;99.90;;;;;;5076641;28;20435;-77
2022/01/01 06:57:34;;;;;;;;;;;9.30;99.90;;;;;;5076737;28;19912;-76
2022/01/01 07:00:00;;;;;;;;;;;9.40;99.90;;;;;;5075491;28;20288;-77
2022/01/01 07:02:25;;;;;;;;;;;9.40;99.90;;;;;;5077091;28;20392;-77
2022/01/01 07:04:51;;;;;;;;;;;9.40;99.90;;;;;;5076937;28;19909;-77
2022/01/01 07:07:16;;;;;;;;;;;9.30;99.90;;;;;;5075318;28;19909;-77
2022/01/01 07:09:42;;;;;;;;;;;9.20;99.90;;;;;;5076529;28;19915;-77
2022/01/01 07:12:08;;;;;;;;;;;9.30;99.90;;;;;;5076457;28;20270;-76
2022/01/01 07:14:33;;;;;;;;;;;9.30;99.90;;;;;;5076632;28;19909;-77
2022/01/01 07:16:59;;;;;;;;;;;9.40;99.90;;;;;;5076464;28;19916;-77
2022/01/01 07:19:24;;;;;;;;;;;9.30;99.90;;;;;;5076380;28;19916;-76
2022/01/01 07:21:50;;;;;;;;;;;9.30;99.90;;;;;;5075045;28;19955;-76
2022/01/01 07:24:15;;;;;;;;;;;9.20;99.90;;;;;;5076301;28;19908;-77
2022/01/01 07:26:41;;;;;;;;;;;9.20;99.90;;;;;;5076724;28;19909;-77
2022/01/01 07:29:06;;;;;;;;;;;9.10;99.90;;;;;;5076235;28;19955;-77
2022/01/01 07:31:32;;;;;;;;;;;9.10;99.90;;;;;;5076203;28;19958;-77
2022/01/01 07:33:58;;;;;;;;;;;9.00;99.90;;;;;;5076167;28;20319;-75
2022/01/01 07:36:23;;;;;;;;;;;9.10;99.90;;;;;;5076016;28;20383;-77
2022/01/01 07:38:49;;;;;;;;;;;9.10;99.90;;;;;;5076448;28;19999;-75
2022/01/01 07:41:15;;;;;;;;;;;9.10;99.90;;;;;;5076040;28;19915;-76
2022/01/01 07:43:40;;;;;;;;;;;9.10;99.90;;;;;;5076030;28;19952;-76
2022/01/01 07:46:06;;;;;;;;;;;9.10;99.90;;;;;;5076433;28;19915;-77
2022/01/01 07:48:31;;;;;;;;;;;9.10;99.90;;;;;;5074585;28;19915;-76
2022/01/01 07:50:57;;;;;;;;;;;9.10;99.90;;;;;;5075843;28;20270;-74
2022/01/01 07:53:23;;;;;;;;;;;9.20;99.90;;;;;;5075819;28;20373;-78
2022/01/01 07:55:48;;;;;;;;;;;9.10;99.90;;;;;;5075823;28;19912;-76
2022/01/01 07:58:14;;;;;;;;;;;9.00;99.90;;;;;;5075717;28;19908;-76
2022/01/01 08:00:39;;;;;;;;;;;9.10;99.90;;;;;;5075684;28;19913;-76
2022/01/01 08:03:05;;;;;;;;;;;9.10;99.90;;;;;;5074187;28;19908;-76
2022/01/01 08:05:30;;;;;;;;;;;9.20;99.90;;;;;;5074317;28;19909;-77
2022/01/01 08:07:56;;;;;;;;;;;9.30;99.90;;;;;;5075512;28;19999;-76
2022/01/01 08:10:23;;;;;;;;;;;9.40;99.90;;;;;;5075517;28;20368;-76
2022/01/01 08:12:49;;;;;;;;;;;9.40;99.90;;;;;;5075049;28;19966;-77
2022/01/01 08:15:15;;;;;;;;;;;9.40;99.90;;;;;;5075432;28;19975;-77
2022/01/01 08:17:41;;;;;;;;;;;9.50;99.90;;;;;;5075598;28;19913;-75
2022/01/01 08:20:07;;;;;;;;;;;9.40;99.90;;;;;;5074030;28;19908;-76
2022/01/01 08:22:32;;;;;;;;;;;9.50;99.90;;;;;;5075273;28;19908;-76
2022/01/01 08:24:58;;;;;;;;;;;9.50;99.90;;;;;;5075507;28;19912;-76
2022/01/01 08:27:23;;;;;;;;;;;9.60;99.90;;;;;;5075317;28;20419;-75
2022/01/01 08:29:49;;;;;;;;;;;9.70;99.90;;;;;;5075090;28;19916;-76
2022/01/01 08:32:15;;;;;;;;;;;9.80;99.90;;;;;;5075084;28;19947;-77
2022/01/01 08:34:40;;;;;;;;;;;9.90;99.90;;;;;;5073700;28;19909;-76
2022/01/01 08:37:06;;;;;;;;;;;10.10;99.90;;;;;;5074844;28;19920;-77
2022/01/01 08:39:31;;;;;;;;;;;10.30;99.90;;;;;;5074829;28;20276;-77
2022/01/01 08:41:57;;;;;;;;;;;10.60;99.90;;;;;;5073553;28;19995;-75
2022/01/01 08:44:23;;;;;;;;;;;10.80;99.90;;;;;;5073474;28;19908;-75
2022/01/01 08:46:48;;;;;;;;;;;11.00;99.90;;;;;;5074785;28;19954;-76
2022/01/01 08:49:14;;;;;;;;;;;11.00;99.90;;;;;;5074753;28;19947;-77
2022/01/01 08:51:43;;;;;;;;;;;11.10;99.90;;;;;;5074805;28;20429;-77
2022/01/01 08:54:09;;;;;;;;;;;11.00;99.90;;;;;;5073350;28;19909;-77
2022/01/01 08:56:35;;;;;;;;;;;10.80;99.90;;;;;;5074484;28;20420;-76
2022/01/01 08:59:00;;;;;;;;;;;11.00;99.90;;;;;;5074520;28;19939;-76
2022/01/01 09:01:26;;;;;;;;;;;11.80;99.90;;;;;;5073167;28;19915;-76
2022/01/01 09:03:52;;;;;;;;;;;12.70;99.90;;;;;;5074609;28;19909;-76
2022/01/01 09:06:17;;;;;;;;;;;13.30;99.90;;;;;;5074384;28;19909;-76
2022/01/01 09:08:43;;;;;;;;;;;13.50;99.90;;;;;;5074297;28;19909;-76
2022/01/01 09:11:09;;;;;;;;;;;13.30;99.90;;;;;;5074147;28;19988;-77
2022/01/01 09:13:35;;;;;;;;;;;13.20;99.90;;;;;;5074529;28;19912;-77
2022/01/01 09:16:01;;;;;;;;;;;13.00;99.90;;;;;;5073888;28;19956;-76
2022/01/01 09:18:27;;;;;;;;;;;12.70;99.90;;;;;;5072862;28;20387;-78
2022/01/01 09:20:52;;;;;;;;;;;12.50;99.90;;;;;;5074148;28;19958;-77
2022/01/01 09:23:18;;;;;;;;;;;12.40;99.90;;;;;;5074052;28;20315;-78
2022/01/01 09:25:44;;;;;;;;;;;12.30;99.90;;;;;;5074366;28;19955;-74
2022/01/01 09:28:10;;;;;;;;;;;12.20;99.90;;;;;;5073987;28;20354;-77
2022/01/01 09:30:35;;;;;;;;;;;12.40;99.90;;;;;;5073967;28;19958;-78
2022/01/01 09:33:02;;;;;;;;;;;13.60;99.90;;;;;;5073906;28;19931;-77
2022/01/01 09:35:28;;;;;;;;;;;14.60;99.90;;;;;;5073844;28;19915;-77
2022/01/01 09:37:53;;;;;;;;;;;15.20;99.90;;;;;;5072434;28;20258;-78
2022/01/01 09:40:19;;;;;;;;;;;15.80;99.90;;;;;;5073724;28;20369;-77
2022/01/01 09:42:46;;;;;;;;;;;16.00;99.90;;;;;;5072522;28;19985;-78
2022/01/01 09:45:12;;;;;;;;;;;14.90;99.90;;;;;;5074038;28;20352;-76
2022/01/01 09:47:37;;;;;;;;;;;14.20;99.90;;;;;;5074315;28;19909;-76
2022/01/01 09:50:06;;;;;;;;;;;13.30;99.90;;;;;;5073724;28;20004;-75
2022/01/01 09:52:33;;;;;;;;;;;13.00;99.90;;;;;;5072355;28;19909;-76
2022/01/01 09:54:58;;;;;;;;;;;12.60;99.90;;;;;;5073779;28;19916;-77
2022/01/01 09:57:24;;;;;;;;;;;12.60;99.90;;;;;;5073577;28;19913;-76
2022/01/01 09:59:50;;;;;;;;;;;13.70;99.90;;;;;;5072259;28;19920;-77
2022/01/01 10:02:15;;;;;;;;;;;15.10;99.90;;;;;;5073575;28;19955;-77
2022/01/01 10:04:42;;;;;;;;;;;16.20;99.90;;;;;;5072240;28;19916;-77
2022/01/01 10:07:08;;;;;;;;;;;16.80;99.90;;;;;;5073633;28;19999;-76
2022/01/01 10:09:35;;;;;;;;;;;17.60;99.90;;;;;;5073611;28;19939;-77
2022/01/01 10:12:01;;;;;;;;;;;18.40;99.90;;;;;;5073356;28;20384;-78
2022/01/01 10:14:37;;;;;;;;;;;18.30;99.90;;;;;;5073817;28;19908;-76
2022/01/01 10:17:19;;;;;;;;;;;18.50;99.90;;;;;;5073502;28;19912;-76
2022/01/01 10:19:45;;;;;;;;;;;18.80;99.20;;;;;;5072195;28;19998;-78
2022/01/01 10:22:14;;;;;;;;;;;18.80;98.60;;;;;;5073458;28;20004;-77
2022/01/01 10:27:42;;;;;;;;;;;19.80;97.10;;;;;;5073609;28;19908;-77
2022/01/01 10:30:19;;;;;;;;;;;20.40;94.50;;;;;;5077453;28;19969;-76
2022/01/01 10:32:58;;;;;;;;;;;20.90;93.70;;;;;;5076025;28;19908;-77
2022/01/01 10:35:24;;;;;;;;;;;22.50;89.80;;;;;;5077617;28;19991;-76
2022/01/01 10:37:50;;;;;;;;;;;21.30;88.80;;;;;;5077135;28;20007;-77
2022/01/01 10:40:23;;;;;;;;;;;21.80;90.20;;;;;;5077445;28;19938;-77
2022/01/01 10:42:50;;;;;;;;;;;22.10;88.50;;;;;;5077233;28;20356;-77
2022/01/01 10:45:27;;;;;;;;;;;21.60;87.90;;;;;;5077081;28;19999;-76
2022/01/01 10:48:15;;;;;;;;;;;22.70;84.70;;;;;;5075519;28;19909;-77
2022/01/01 10:50:41;;;;;;;;;;;23.50;83.00;;;;;;5077260;28;19923;-77
2022/01/01 10:53:11;;;;;;;;;;;24.00;80.20;;;;;;5077001;28;19915;-76
2022/01/01 10:55:44;;;;;;;;;;;24.20;76.80;;;;;;5075559;28;20335;-77
2022/01/01 10:58:16;;;;;;;;;;;23.20;77.20;;;;;;5076786;28;20398;-76
2022/01/01 11:00:42;;;;;;;;;;;24.10;77.50;;;;;;5075197;28;19908;-77
2022/01/01 11:03:15;;;;;;;;;;;24.00;76.40;;;;;;5076723;28;20389;-77
2022/01/01 11:05:41;;;;;;;;;;;24.00;76.40;;;;;;5076977;28;19908;-78
2022/01/01 11:08:07;;;;;;;;;;;23.40;76.40;;;;;;5076516;28;19919;-76
2022/01/01 11:10:34;;;;;;;;;;;24.20;75.80;;;;;;5076645;28;19954;-77
2022/01/01 11:13:00;;;;;;;;;;;24.90;72.80;;;;;;5076180;28;19924;-76
2022/01/01 11:15:26;;;;;;;;;;;25.50;71.50;;;;;;5075197;28;20300;-76
2022/01/01 11:17:51;;;;;;;;;;;25.70;71.00;;;;;;5076577;28;19908;-77
2022/01/01 11:20:17;;;;;;;;;;;25.40;71.30;;;;;;5075034;28;20308;-77
2022/01/01 11:22:43;;;;;;;;;;;26.30;69.00;;;;;;5075125;28;20408;-77
2022/01/01 11:25:09;;;;;;;;;;;25.70;68.80;;;;;;5076366;28;19944;-78
2022/01/01 11:27:36;;;;;;;;;;;25.80;67.70;;;;;;5076274;28;19916;-78
2022/01/01 11:30:07;;;;;;;;;;;25.90;65.80;;;;;;5076420;28;19934;-76
2022/01/01 11:32:39;;;;;;;;;;;26.30;65.60;;;;;;5076217;28;19957;-77
2022/01/01 11:35:07;;;;;;;;;;;27.80;63.40;;;;;;5076393;28;19909;-77
2022/01/01 11:37:46;;;;;;;;;;;25.90;63.40;;;;;;5076323;28;20387;-78
2022/01/01 11:40:15;;;;;;;;;;;25.90;65.10;;;;;;5075710;28;19908;-77
2022/01/01 11:42:45;;;;;;;;;;;25.70;62.50;;;;;;5074756;28;19912;-77
2022/01/01 11:45:12;;;;;;;;;;;23.50;67.70;;;;;;5076181;28;19974;-77
2022/01/01 11:47:38;;;;;;;;;;;24.30;67.30;;;;;;5075863;28;19920;-76
2022/01/01 11:50:04;;;;;;;;;;;25.00;66.60;;;;;;5075845;28;19909;-78
2022/01/01 11:52:34;;;;;;;;;;;25.30;64.40;;;;;;5075893;28;19913;-78
2022/01/01 11:55:00;;;;;;;;;;;26.00;64.60;;;;;;5075800;28;19912;-77
2022/01/01 11:57:27;;;;;;;;;;;25.80;64.70;;;;;;5074481;28;20379;-77
2022/01/01 11:59:58;;;;;;;;;;;24.50;66.50;;;;;;5074441;28;20323;-78
2022/01/01 12:02:24;;;;;;;;;;;22.70;71.60;;;;;;5074179;28;19908;-76
2022/01/01 12:04:54;;;;;;;;;;;23.50;72.60;;;;;;5074316;28;19913;-77
2022/01/01 12:07:19;;;;;;;;;;;23.80;71.00;;;;;;5075705;28;19959;-76
2022/01/01 12:10:06;;;;;;;;;;;22.80;71.60;;;;;;5075527;28;19947;-77
2022/01/01 12:12:38;;;;;;;;;;;21.80;74.30;;;;;;5075256;28;20381;-78
2022/01/01 12:15:08;;;;;;;;;;;20.00;79.40;;;;;;5075405;28;19915;-78
2022/01/01 12:17:44;;;;;;;;;;;19.60;83.30;;;;;;5074079;28;20416;-78
2022/01/01 12:20:13;;;;;;;;;;;18.60;85.20;;;;;;5075318;28;19919;-77
2022/01/01 12:22:38;;;;;;;;;;;18.00;88.90;;;;;;5075272;28;19915;-78
2022/01/01 12:25:06;;;;;;;;;;;18.30;90.10;;;;;;5075417;28;19909;-77
2022/01/01 12:27:39;;;;;;;;;;;19.10;88.20;;;;;;5075092;28;20433;-75
2022/01/01 12:30:05;;;;;;;;;;;19.80;88.00;;;;;;5075250;28;20004;-76
2022/01/01 12:32:45;;;;;;;;;;;20.50;82.70;;;;;;5075076;28;19909;-78
2022/01/01 12:35:17;;;;;;;;;;;21.30;82.10;;;;;;5075237;28;19920;-77
2022/01/01 12:37:43;;;;;;;;;;;24.70;75.50;;;;;;5075116;28;19917;-77
2022/01/01 12:40:09;;;;;;;;;;;25.50;69.10;;;;;;5074913;28;19913;-77
2022/01/01 12:42:35;;;;;;;;;;;25.90;67.60;;;;;;5074890;28;19908;-78
2022/01/01 12:45:05;;;;;;;;;;;27.50;64.50;;;;;;5074828;28;20280;-77
2022/01/01 12:47:31;;;;;;;;;;;24.80;67.10;;;;;;5074746;28;19923;-78
2022/01/01 12:49:58;;;;;;;;;;;25.20;69.00;;;;;;5074878;28;19908;-77
2022/01/01 12:52:24;;;;;;;;;;;25.80;67.00;;;;;;5073963;28;19954;-76
2022/01/01 12:54:49;;;;;;;;;;;27.20;63.20;;;;;;5073315;28;19916;-78
2022/01/01 12:57:18;;;;;;;;;;;27.60;63.70;;;;;;5074542;28;19970;-77
2022/01/01 12:59:47;;;;;;;;;;;28.40;62.00;;;;;;5073264;28;20325;-78
2022/01/01 13:02:14;;;;;;;;;;;27.70;61.90;;;;;;5073116;28;20433;-77
2022/01/01 13:04:39;;;;;;;;;;;26.40;63.60;;;;;;5073171;28;19908;-78
2022/01/01 13:07:05;;;;;;;;;;;25.20;64.80;;;;;;5073014;28;20011;-77
2022/01/01 13:09:31;;;;;;;;;;;25.10;65.90;;;;;;5074454;28;19909;-78
2022/01/01 13:12:01;;;;;;;;;;;26.60;63.80;;;;;;5072772;28;19920;-77
2022/01/01 13:14:28;;;;;;;;;;;26.20;63.10;;;;;;5072988;28;19909;-77
2022/01/01 13:16:53;;;;;;;;;;;25.20;65.40;;;;;;5074410;28;19908;-77
2022/01/01 13:19:19;;;;;;;;;;;24.40;66.10;;;;;;5074143;28;19909;-77
2022/01/01 13:21:45;;;;;;;;;;;25.90;65.50;;;;;;5074306;28;19909;-77
2022/01/01 13:24:12;;;;;;;;;;;24.80;66.00;;;;;;5074064;28;19920;-76
2022/01/01 13:26:38;;;;;;;;;;;22.80;70.60;;;;;;5073916;28;20385;-76
2022/01/01 13:29:03;;;;;;;;;;;21.80;74.00;;;;;;5072728;28;19991;-76
2022/01/01 13:31:30;;;;;;;;;;;21.50;76.00;;;;;;5074106;28;20004;-77
2022/01/01 13:33:56;;;;;;;;;;;20.30;78.60;;;;;;5073910;28;20365;-77
2022/01/01 13:36:31;;;;;;;;;;;20.20;81.00;;;;;;5073983;28;19909;-77
2022/01/01 13:38:57;;;;;;;;;;;21.10;79.00;;;;;;5073877;28;20430;-77
2022/01/01 13:41:23;;;;;;;;;;;21.70;76.10;;;;;;5073845;28;19908;-77
2022/01/01 13:43:49;;;;;;;;;;;20.40;78.20;;;;;;5073980;28;19909;-78
2022/01/01 13:46:34;;;;;;;;;;;20.60;80.60;;;;;;5072442;28;19913;-76
2022/01/01 13:49:00;;;;;;;;;;;20.00;81.60;;;;;;5073186;28;19920;-77
2022/01/01 13:51:26;;;;;;;;;;;19.50;84.20;;;;;;5073731;28;19912;-76
2022/01/01 13:54:13;;;;;;;;;;;18.90;86.70;;;;;;5072411;28;20338;-77
2022/01/01 13:56:39;;;;;;;;;;;18.80;89.60;;;;;;5073703;28;19908;-77
2022/01/01 13:59:05;;;;;;;;;;;19.60;87.10;;;;;;5073862;28;19909;-76
2022/01/01 14:01:35;;;;;;;;;;;19.50;86.40;;;;;;5073682;28;20408;-77
2022/01/01 14:04:02;;;;;;;;;;;18.90;88.80;;;;;;5072275;28;19958;-78
2022/01/01 14:06:28;;;;;;;;;;;18.90;90.50;;;;;;5073538;28;19920;-76
2022/01/01 14:09:01;;;;;;;;;;;19.80;88.20;;;;;;5073552;28;19909;-77
2022/01/01 14:11:27;;;;;;;;;;;20.60;87.60;;;;;;5073415;28;19917;-77
2022/01/01 14:14:02;;;;;;;;;;;22.50;81.30;;;;;;5073695;28;19919;-77
2022/01/01 14:16:30;;;;;;;;;;;23.60;76.10;;;;;;5071973;28;20399;-77
2022/01/01 14:18:56;;;;;;;;;;;22.60;76.30;;;;;;5073454;28;19915;-77
2022/01/01 14:21:24;;;;;;;;;;;21.80;79.50;;;;;;5073463;28;19908;-77
2022/01/01 14:23:52;;;;;;;;;;;20.60;83.30;;;;;;5073475;28;20391;-75